createdAt,value
2022-12-20T00:01:36.040Z,8.25
2022-12-20T00:04:06.573Z,8.98
2022-12-20T00:06:35.438Z,10.55
2022-12-20T00:09:05.469Z,9.75
2022-12-20T00:11:34.039Z,8.80
2022-12-20T00:14:02.056Z,12.23
2022-12-20T00:16:31.783Z,6.63
2022-12-20T00:19:02.911Z,17.13
2022-12-20T00:21:32.129Z,10.02
2022-12-20T00:24:00.349Z,7.90
2022-12-20T00:26:30.413Z,7.30
2022-12-20T00:28:59.079Z,8.67
2022-12-20T00:31:28.866Z,10.32
2022-12-20T00:34:00.371Z,7.60
2022-12-20T00:36:30.163Z,7.82
2022-12-20T00:39:00.318Z,8.43
2022-12-20T00:41:30.375Z,8.65
2022-12-20T00:43:58.718Z,8.83
2022-12-20T00:46:27.162Z,12.25
2022-12-20T00:48:56.852Z,6.85
2022-12-20T00:51:28.137Z,5.03
2022-12-20T00:53:57.050Z,5.85
2022-12-20T00:56:26.000Z,5.32
2022-12-20T00:59:00.482Z,4.95
2022-12-20T01:01:30.797Z,7.78
2022-12-20T01:03:59.592Z,6.80
2022-12-20T01:06:29.911Z,6.80
2022-12-20T01:08:58.683Z,4.72
2022-12-20T01:11:29.557Z,6.45
2022-12-20T01:14:01.079Z,4.78
2022-12-20T01:16:31.675Z,6.63
2022-12-20T01:18:59.856Z,5.35
2022-12-20T01:21:29.509Z,4.80
2022-12-20T01:23:57.944Z,9.25
2022-12-20T01:26:28.636Z,8.75
2022-12-20T01:28:58.487Z,6.22
2022-12-20T01:31:27.474Z,5.57
2022-12-20T01:33:55.527Z,6.53
2022-12-20T01:36:26.206Z,2.55
2022-12-20T01:38:59.814Z,10.40
2022-12-20T01:41:29.400Z,4.43
2022-12-20T01:43:59.227Z,3.55
2022-12-20T01:46:29.431Z,7.60
2022-12-20T01:49:00.981Z,3.63
2022-12-20T01:51:32.110Z,5.07
2022-12-20T01:54:06.162Z,5.93
2022-12-20T01:56:34.550Z,5.05
2022-12-20T01:59:03.197Z,4.60
2022-12-20T02:01:31.224Z,8.88
2022-12-20T02:03:59.309Z,6.35
2022-12-20T02:06:28.910Z,7.78
2022-12-20T02:09:02.293Z,6.32
2022-12-20T02:11:52.560Z,6.00
2022-12-20T02:14:33.227Z,7.38
2022-12-20T02:17:11.359Z,8.05
2022-12-20T02:20:18.952Z,7.93
2022-12-20T02:23:02.885Z,6.97
2022-12-20T02:25:50.574Z,7.72
2022-12-20T02:28:40.585Z,8.65
2022-12-20T02:31:15.085Z,4.47
2022-12-20T02:33:47.962Z,7.43
2022-12-20T02:36:18.032Z,6.53
2022-12-20T02:38:47.363Z,4.43
2022-12-20T02:41:20.436Z,6.28
2022-12-20T02:44:10.034Z,6.95
2022-12-20T02:46:43.811Z,6.70
2022-12-20T02:49:16.373Z,5.30
2022-12-20T02:51:48.380Z,3.60
2022-12-20T02:54:17.811Z,6.13
2022-12-20T02:56:55.763Z,5.05
2022-12-20T02:59:30.619Z,4.63
2022-12-20T03:02:00.751Z,3.85
2022-12-20T03:04:31.349Z,6.63
2022-12-20T03:07:01.816Z,6.72
2022-12-20T03:09:32.236Z,9.18
2022-12-20T03:12:00.546Z,11.38
2022-12-20T03:14:28.885Z,8.48
2022-12-20T03:17:00.528Z,9.93
2022-12-20T03:19:28.690Z,12.20
2022-12-20T03:21:58.860Z,5.30
2022-12-20T03:24:27.231Z,11.65
2022-12-20T03:26:55.985Z,11.50
2022-12-20T03:29:25.875Z,10.07
2022-12-20T03:31:54.060Z,9.55
2022-12-20T03:34:25.180Z,11.52
2022-12-20T03:39:22.084Z,7.50
2022-12-20T03:41:52.277Z,9.80
2022-12-20T03:44:20.408Z,6.47
2022-12-20T03:46:48.536Z,9.75
2022-12-20T03:49:17.417Z,10.82
2022-12-20T03:51:50.848Z,9.95
2022-12-20T03:54:19.809Z,7.25
2022-12-20T03:59:39.378Z,11.07
2022-12-20T04:02:10.412Z,10.27
2022-12-20T04:04:38.519Z,10.15
2022-12-20T04:07:09.065Z,13.80
2022-12-20T04:09:39.364Z,10.65
2022-12-20T04:12:12.430Z,8.82
2022-12-20T04:14:40.933Z,9.93
2022-12-20T04:17:08.966Z,12.30
2022-12-20T04:19:38.154Z,13.55
2022-12-20T04:22:08.530Z,10.07
2022-12-20T04:24:48.030Z,8.30
2022-12-20T04:27:25.190Z,8.48
2022-12-20T04:29:55.140Z,10.57
2022-12-20T04:32:27.143Z,11.32
2022-12-20T04:37:25.063Z,7.00
2022-12-20T04:39:55.540Z,10.57
2022-12-20T04:42:27.235Z,8.45
2022-12-20T04:44:56.296Z,9.95
2022-12-20T04:47:30.104Z,11.70
2022-12-20T04:49:58.619Z,8.77
2022-12-20T04:52:47.834Z,12.55
2022-12-20T04:55:17.017Z,8.70
2022-12-20T04:57:45.673Z,10.20
2022-12-20T05:00:15.763Z,12.82
2022-12-20T05:02:47.127Z,5.85
2022-12-20T05:05:18.617Z,8.85
2022-12-20T05:07:53.117Z,16.15
2022-12-20T05:10:21.399Z,11.35
2022-12-20T05:12:50.435Z,13.10
2022-12-20T05:15:38.800Z,11.40
2022-12-20T05:18:07.462Z,18.75
2022-12-20T05:21:12.524Z,13.52
2022-12-20T05:24:00.910Z,13.13
2022-12-20T05:26:32.592Z,10.27
2022-12-20T05:29:02.070Z,12.65
2022-12-20T05:31:30.145Z,11.07
2022-12-20T05:33:58.744Z,9.65
2022-12-20T05:36:31.053Z,9.80
2022-12-20T05:39:04.565Z,13.13
2022-12-20T05:41:34.825Z,7.13
2022-12-20T05:44:03.701Z,9.68
2022-12-20T05:49:06.737Z,10.05
2022-12-20T05:51:35.437Z,10.00
2022-12-20T05:54:13.713Z,8.73
2022-12-20T05:56:56.703Z,11.48
2022-12-20T05:59:33.146Z,11.38
2022-12-20T06:02:01.814Z,8.98
2022-12-20T06:04:30.180Z,7.25
2022-12-20T06:06:59.590Z,7.95
2022-12-20T06:09:30.135Z,7.78
2022-12-20T06:12:10.712Z,8.07
2022-12-20T06:14:40.524Z,5.95
2022-12-20T06:17:08.727Z,9.63
2022-12-20T06:19:37.231Z,7.43
2022-12-20T06:22:05.253Z,10.55
2022-12-20T06:25:09.283Z,8.57
2022-12-20T06:27:40.096Z,9.90
2022-12-20T06:30:13.431Z,7.68
2022-12-20T06:32:54.209Z,7.75
2022-12-20T06:35:22.501Z,5.65
2022-12-20T06:37:51.900Z,9.93
2022-12-20T06:40:21.510Z,11.32
2022-12-20T06:42:50.417Z,7.97
2022-12-20T06:45:20.746Z,11.82
2022-12-20T06:47:48.730Z,6.80
2022-12-20T06:50:16.740Z,15.75
2022-12-20T06:52:44.764Z,7.70
2022-12-20T06:55:12.887Z,12.32
2022-12-20T06:57:44.050Z,3.80
2022-12-20T07:00:13.581Z,1.17
2022-12-20T07:02:41.867Z,1.17
2022-12-20T07:05:10.286Z,0.50
2022-12-20T07:07:44.632Z,0.38
2022-12-20T07:10:13.678Z,0.30
2022-12-20T07:12:47.760Z,1.58
2022-12-20T07:15:16.629Z,1.35
2022-12-20T07:17:44.912Z,0.50
2022-12-20T07:20:14.393Z,1.85
2022-12-20T07:22:42.808Z,1.50
2022-12-20T07:25:12.089Z,1.33
2022-12-20T07:27:40.165Z,1.85
2022-12-20T07:30:10.773Z,2.17
2022-12-20T07:32:38.870Z,2.17
2022-12-20T07:35:07.809Z,1.77
2022-12-20T07:37:35.831Z,1.27
2022-12-20T07:40:03.800Z,1.40
2022-12-20T07:42:36.051Z,3.08
2022-12-20T07:45:09.313Z,0.93
2022-12-20T07:47:37.371Z,1.30
2022-12-20T07:50:06.267Z,1.95
2022-12-20T07:52:35.571Z,0.70
2022-12-20T07:55:09.263Z,0.40
2022-12-20T07:57:40.907Z,2.42
2022-12-20T08:00:12.055Z,1.42
2022-12-20T08:02:48.945Z,0.60
2022-12-20T08:05:18.161Z,0.60
2022-12-20T08:07:51.052Z,0.93
2022-12-20T08:10:21.969Z,1.02
2022-12-20T08:12:50.814Z,0.52
2022-12-20T08:15:22.584Z,1.13
2022-12-20T08:17:50.783Z,1.50
2022-12-20T08:20:18.926Z,0.85
2022-12-20T08:22:47.013Z,1.17
2022-12-20T08:25:15.095Z,0.73
2022-12-20T08:27:43.074Z,3.97
2022-12-20T08:30:12.572Z,0.55
2022-12-20T08:32:42.080Z,0.70
2022-12-20T08:35:10.447Z,0.50
2022-12-20T08:37:38.441Z,0.57
2022-12-20T08:40:08.671Z,1.17
2022-12-20T08:42:36.795Z,0.90
2022-12-20T08:45:05.552Z,1.80
2022-12-20T08:47:33.540Z,2.20
2022-12-20T08:50:03.458Z,3.07
2022-12-20T08:52:31.470Z,0.77
2022-12-20T08:55:01.728Z,2.43
2022-12-20T08:57:30.236Z,1.92
2022-12-20T08:59:58.170Z,2.60
2022-12-20T09:02:28.382Z,2.20
2022-12-20T09:04:56.832Z,5.85
2022-12-20T09:07:26.264Z,2.30
2022-12-20T09:09:54.232Z,3.70
2022-12-20T09:12:22.201Z,1.90
2022-12-20T09:15:15.068Z,3.43
2022-12-20T09:17:43.052Z,1.87
2022-12-20T09:20:11.537Z,2.43
2022-12-20T09:22:40.922Z,0.90
2022-12-20T09:25:09.843Z,3.83
2022-12-20T09:27:38.117Z,3.00
2022-12-20T09:30:07.003Z,2.20
2022-12-20T09:32:35.341Z,1.57
2022-12-20T09:35:03.404Z,5.57
2022-12-20T09:37:31.691Z,1.97
2022-12-20T09:40:01.169Z,3.70
2022-12-20T09:42:30.823Z,3.53
2022-12-20T09:45:07.324Z,3.27
2022-12-20T09:47:36.941Z,3.03
2022-12-20T09:50:07.603Z,3.20
2022-12-20T09:53:16.424Z,2.75
2022-12-20T09:55:54.902Z,1.70
2022-12-20T09:58:36.780Z,2.07
2022-12-20T10:01:23.057Z,3.00
2022-12-20T10:03:53.717Z,5.87
2022-12-20T10:06:33.871Z,2.83
2022-12-20T10:09:05.117Z,5.03
2022-12-20T10:11:56.905Z,2.37
2022-12-20T10:14:43.453Z,2.50
2022-12-20T10:17:15.439Z,5.70
2022-12-20T10:20:04.253Z,3.03
2022-12-20T10:22:41.898Z,5.50
2022-12-20T10:25:17.471Z,4.03
2022-12-20T10:27:48.864Z,5.00
2022-12-20T10:30:19.865Z,9.03
2022-12-20T10:35:26.342Z,7.47
2022-12-20T10:38:07.652Z,5.50
2022-12-20T10:41:18.875Z,5.80
2022-12-20T10:43:29.280Z,3.27
2022-12-20T10:45:59.941Z,4.25
2022-12-20T10:48:31.781Z,6.27
2022-12-20T10:51:04.610Z,7.72
2022-12-20T10:53:33.341Z,6.93
2022-12-20T10:56:18.367Z,1.83
2022-12-20T10:58:56.371Z,4.40
2022-12-20T11:01:28.317Z,3.30
2022-12-20T11:03:59.615Z,5.63
2022-12-20T11:09:25.955Z,4.10
2022-12-20T11:12:03.550Z,8.73
2022-12-20T11:15:10.457Z,9.47
2022-12-20T11:17:42.886Z,7.83
2022-12-20T11:20:30.593Z,7.50
2022-12-20T11:23:10.631Z,5.20
2022-12-20T11:25:55.577Z,7.30
2022-12-20T11:28:46.796Z,10.00
2022-12-20T11:34:04.512Z,11.10
2022-12-20T11:36:47.199Z,13.10
2022-12-20T11:39:24.832Z,9.97
2022-12-20T11:42:05.298Z,10.93
2022-12-20T11:44:57.962Z,11.23
2022-12-20T11:47:49.187Z,6.23
2022-12-20T11:50:33.419Z,5.67
2022-12-20T11:53:06.892Z,8.17
2022-12-20T11:56:03.258Z,9.83
2022-12-20T11:58:37.449Z,15.87
2022-12-20T12:01:12.933Z,7.70
2022-12-20T12:03:45.989Z,17.00
2022-12-20T12:06:22.381Z,10.00
2022-12-20T12:08:54.576Z,11.40
2022-12-20T12:12:04.645Z,9.25
2022-12-20T12:16:53.929Z,23.53
2022-12-20T12:19:27.594Z,11.67
2022-12-20T12:22:03.153Z,18.13
2022-12-20T12:24:36.106Z,14.50
2022-12-20T12:27:04.153Z,13.80
2022-12-20T12:29:35.502Z,14.98
2022-12-20T12:32:09.859Z,12.25
2022-12-20T12:34:53.807Z,9.40
2022-12-20T12:37:41.250Z,16.07
2022-12-20T12:40:52.578Z,22.10
2022-12-20T12:43:46.786Z,11.50
2022-12-20T12:46:18.115Z,26.00
2022-12-20T12:48:51.993Z,7.10
2022-12-20T12:51:29.133Z,16.70
2022-12-20T12:54:47.173Z,16.83
2022-12-20T12:57:16.760Z,18.57
2022-12-20T12:59:48.385Z,13.23
2022-12-20T13:02:35.329Z,13.38
2022-12-20T13:05:32.502Z,13.40
2022-12-20T13:08:02.055Z,10.48
2022-12-20T13:10:59.871Z,12.38
2022-12-20T13:13:28.329Z,11.85
2022-12-20T13:16:13.162Z,11.10
2022-12-20T13:19:14.008Z,16.50
2022-12-20T13:21:44.858Z,37.17
2022-12-20T13:24:57.569Z,17.80
2022-12-20T13:27:35.903Z,12.68
2022-12-20T13:30:26.275Z,17.30
2022-12-20T13:33:03.774Z,24.75
2022-12-20T13:35:42.297Z,17.02
2022-12-20T13:38:49.906Z,16.60
2022-12-20T13:41:32.585Z,13.63
2022-12-20T13:44:19.620Z,14.97
2022-12-20T13:46:51.850Z,19.17
2022-12-20T13:49:26.942Z,12.85
2022-12-20T13:52:23.171Z,8.43
2022-12-20T13:54:54.784Z,15.90
2022-12-20T13:57:29.381Z,17.65
2022-12-20T14:00:06.872Z,22.05
2022-12-20T14:02:41.623Z,16.70
2022-12-20T14:05:18.483Z,10.52
2022-12-20T14:07:49.062Z,18.85
2022-12-20T14:10:21.887Z,16.33
2022-12-20T14:13:20.822Z,12.45
2022-12-20T14:15:51.298Z,15.63
2022-12-20T14:18:21.768Z,16.27
2022-12-20T14:20:52.580Z,19.00
2022-12-20T14:23:23.579Z,21.27
2022-12-20T14:28:31.461Z,17.67
2022-12-20T14:31:03.477Z,22.30
2022-12-20T14:33:36.663Z,19.40
2022-12-20T14:36:19.091Z,19.40
2022-12-20T14:38:49.319Z,37.03
2022-12-20T14:41:31.999Z,27.05
2022-12-20T14:44:04.124Z,23.05
2022-12-20T14:46:35.148Z,20.15
2022-12-20T14:51:37.239Z,26.27
2022-12-20T14:54:05.661Z,26.17
2022-12-20T14:56:34.021Z,21.03
2022-12-20T14:59:17.967Z,16.13
2022-12-20T15:01:47.577Z,18.80
2022-12-20T15:04:31.322Z,21.47
2022-12-20T15:06:59.972Z,19.92
2022-12-20T15:09:28.904Z,15.60
2022-12-20T15:11:58.385Z,27.90
2022-12-20T15:14:36.589Z,20.67
2022-12-20T15:17:31.902Z,23.35
2022-12-20T15:20:00.945Z,21.65
2022-12-20T15:22:31.715Z,16.85
2022-12-20T15:24:59.727Z,17.70
2022-12-20T15:27:27.656Z,16.73
2022-12-20T15:29:55.710Z,13.07
2022-12-20T15:32:28.228Z,13.83
2022-12-20T15:34:57.898Z,18.63
2022-12-20T15:37:25.992Z,17.98
2022-12-20T15:39:53.961Z,13.48
2022-12-20T15:42:23.004Z,11.32
2022-12-20T15:44:51.732Z,19.45
2022-12-20T15:47:20.201Z,12.83
2022-12-20T15:49:50.597Z,18.43
2022-12-20T15:52:23.281Z,17.77
2022-12-20T15:54:51.786Z,13.30
2022-12-20T15:57:21.055Z,17.42
2022-12-20T16:00:00.258Z,12.90
2022-12-20T16:02:33.383Z,20.07
2022-12-20T16:05:01.656Z,20.13
2022-12-20T16:07:31.083Z,10.17
2022-12-20T16:09:59.096Z,20.90
2022-12-20T16:12:32.320Z,14.97
2022-12-20T16:15:00.332Z,12.53
2022-12-20T16:17:28.384Z,14.60
2022-12-20T16:19:56.809Z,13.40
2022-12-20T16:22:26.326Z,17.57
2022-12-20T16:24:55.992Z,19.30
2022-12-20T16:27:24.269Z,16.77
2022-12-20T16:29:52.316Z,10.53
2022-12-20T16:32:22.533Z,17.10
2022-12-20T16:34:51.690Z,19.07
2022-12-20T16:37:19.909Z,19.40
2022-12-20T16:39:48.806Z,16.27
2022-12-20T16:42:22.280Z,17.97
2022-12-20T16:44:53.514Z,17.97
2022-12-20T16:47:21.729Z,14.97
2022-12-20T16:49:53.235Z,11.87
2022-12-20T16:52:23.255Z,16.20
2022-12-20T16:54:51.682Z,20.17
2022-12-20T16:57:22.016Z,15.70
2022-12-20T16:59:50.165Z,16.95
2022-12-20T17:02:25.556Z,13.63
2022-12-20T17:04:53.729Z,15.57
2022-12-20T17:07:22.593Z,14.27
2022-12-20T17:12:38.010Z,16.20
2022-12-20T17:15:06.955Z,16.43
2022-12-20T17:17:35.068Z,14.47
2022-12-20T17:20:03.345Z,13.23
2022-12-20T17:22:31.493Z,14.57
2022-12-20T17:24:59.649Z,26.17
2022-12-20T17:27:27.623Z,21.17
2022-12-20T17:29:57.007Z,22.73
2022-12-20T17:32:26.348Z,19.87
2022-12-20T17:34:55.326Z,19.20
2022-12-20T17:37:24.635Z,17.87
2022-12-20T17:39:52.787Z,15.60
2022-12-20T17:42:23.233Z,20.27
2022-12-20T17:44:56.480Z,15.73
2022-12-20T17:47:24.405Z,17.97
2022-12-20T17:49:53.402Z,21.10
2022-12-20T17:52:21.724Z,30.70
2022-12-20T17:54:49.778Z,24.77
2022-12-20T17:57:17.847Z,37.13
2022-12-20T17:59:46.311Z,22.60
2022-12-20T18:02:24.324Z,17.73
2022-12-20T18:04:52.874Z,23.37
2022-12-20T18:07:20.917Z,21.93
2022-12-20T18:09:49.574Z,17.03
2022-12-20T18:12:17.987Z,23.67
2022-12-20T18:14:46.038Z,17.43
2022-12-20T18:17:14.345Z,20.47
2022-12-20T18:19:45.605Z,19.10
2022-12-20T18:22:14.158Z,23.10
2022-12-20T18:24:42.415Z,17.23
2022-12-20T18:27:10.448Z,20.17
2022-12-20T18:29:38.622Z,13.30
2022-12-20T18:32:06.922Z,17.23
2022-12-20T18:34:35.071Z,25.43
2022-12-20T18:37:05.693Z,22.83
2022-12-20T18:39:34.219Z,13.75
2022-12-20T18:42:02.344Z,20.97
2022-12-20T18:44:35.772Z,16.10
2022-12-20T18:47:04.857Z,20.67
2022-12-20T18:49:33.193Z,28.70
2022-12-20T18:52:01.208Z,20.17
2022-12-20T18:54:33.522Z,23.00
2022-12-20T18:57:05.871Z,19.53
2022-12-20T18:59:35.253Z,20.97
2022-12-20T19:02:03.510Z,18.70
2022-12-20T19:04:32.883Z,20.90
2022-12-20T19:07:01.090Z,21.57
2022-12-20T19:09:30.632Z,19.43
2022-12-20T19:11:59.031Z,17.70
2022-12-20T19:14:27.342Z,20.63
2022-12-20T19:16:55.618Z,34.60
2022-12-20T19:19:23.789Z,24.57
2022-12-20T19:21:52.076Z,24.20
2022-12-20T19:24:20.161Z,26.57
2022-12-20T19:26:49.876Z,24.33
2022-12-20T19:29:18.097Z,20.93
2022-12-20T19:31:46.238Z,28.33
2022-12-20T19:34:15.180Z,23.70
2022-12-20T19:36:45.021Z,28.63
2022-12-20T19:39:20.083Z,17.77
2022-12-20T19:44:40.683Z,22.43
2022-12-20T19:49:36.958Z,21.17
2022-12-20T19:52:06.126Z,24.23
2022-12-20T19:54:35.160Z,18.67
2022-12-20T19:57:04.783Z,17.97
2022-12-20T19:59:33.161Z,23.50
2022-12-20T20:02:01.619Z,27.57
2022-12-20T20:04:31.261Z,20.83
2022-12-20T20:06:59.291Z,21.87
2022-12-20T20:09:27.471Z,32.40
2022-12-20T20:11:55.488Z,23.73
2022-12-20T20:14:25.049Z,26.37
2022-12-20T20:16:53.239Z,25.30
2022-12-20T20:19:21.544Z,18.57
2022-12-20T20:21:49.880Z,15.27
2022-12-20T20:24:18.006Z,29.33
2022-12-20T20:26:46.081Z,24.20
2022-12-20T20:29:14.247Z,18.50
2022-12-20T20:31:43.706Z,26.43
2022-12-20T20:34:12.343Z,26.53
2022-12-20T20:36:40.388Z,28.13
2022-12-20T20:39:08.535Z,23.40
2022-12-20T20:41:36.563Z,22.47
2022-12-20T20:44:04.775Z,21.47
2022-12-20T20:46:32.936Z,21.27
2022-12-20T20:49:02.363Z,23.70
2022-12-20T20:51:30.488Z,24.03
2022-12-20T20:53:58.655Z,15.70
2022-12-20T20:56:26.861Z,23.50
2022-12-20T20:59:02.630Z,16.07
2022-12-20T21:01:34.126Z,21.53
2022-12-20T21:04:04.163Z,18.03
2022-12-20T21:06:40.425Z,26.33
2022-12-20T21:09:09.699Z,18.23
2022-12-20T21:11:37.998Z,19.90
2022-12-20T21:14:06.314Z,22.40
2022-12-20T21:16:34.538Z,18.10
2022-12-20T21:19:04.017Z,28.20
2022-12-20T21:21:32.042Z,23.67
2022-12-20T21:24:00.178Z,32.27
2022-12-20T21:26:28.190Z,28.90
2022-12-20T21:28:59.761Z,26.13
2022-12-20T21:31:28.665Z,23.47
2022-12-20T21:33:57.276Z,24.27
2022-12-20T21:36:27.124Z,22.23
2022-12-20T21:38:56.919Z,22.73
2022-12-20T21:41:26.585Z,28.67
2022-12-20T21:43:56.604Z,30.20
2022-12-20T21:46:24.827Z,29.17
2022-12-20T21:48:52.883Z,24.20
2022-12-20T21:51:23.459Z,24.10
2022-12-20T21:53:54.323Z,24.08
2022-12-20T21:56:23.874Z,28.08
2022-12-20T21:58:52.247Z,16.20
2022-12-20T22:01:22.255Z,30.00
2022-12-20T22:03:52.238Z,17.20
2022-12-20T22:06:20.641Z,22.93
2022-12-20T22:08:48.799Z,23.27
2022-12-20T22:11:19.553Z,19.47
2022-12-20T22:13:48.241Z,26.73
2022-12-20T22:16:17.779Z,23.07
2022-12-20T22:18:49.839Z,22.47
2022-12-20T22:21:18.695Z,22.73
2022-12-20T22:23:46.986Z,20.93
2022-12-20T22:26:17.197Z,23.00
2022-12-20T22:28:48.361Z,16.65
2022-12-20T22:33:44.946Z,15.10
2022-12-20T22:36:15.024Z,20.87
2022-12-20T22:38:44.741Z,21.90
2022-12-20T22:41:14.970Z,22.90
2022-12-20T22:43:44.565Z,23.87
2022-12-20T22:49:01.420Z,17.70
2022-12-20T22:51:31.056Z,16.33
2022-12-20T22:54:00.111Z,22.20
2022-12-20T22:56:28.120Z,20.37
2022-12-20T22:58:57.059Z,20.87
2022-12-20T23:01:26.515Z,16.13
2022-12-20T23:03:54.681Z,26.20
2022-12-20T23:06:23.071Z,21.13
2022-12-20T23:08:51.057Z,16.10
2022-12-20T23:11:39.438Z,18.07
2022-12-20T23:14:29.057Z,16.83
2022-12-20T23:17:00.064Z,19.17
2022-12-20T23:19:28.499Z,21.63
2022-12-20T23:22:14.303Z,23.20
2022-12-20T23:24:42.277Z,11.33
2022-12-20T23:27:10.196Z,21.00
2022-12-20T23:29:38.473Z,24.67
2022-12-20T23:32:08.786Z,21.07
2022-12-20T23:34:36.929Z,19.90
2022-12-20T23:37:04.851Z,22.17
2022-12-20T23:39:32.779Z,26.93
2022-12-20T23:42:00.843Z,22.83
2022-12-20T23:44:28.846Z,22.83
2022-12-20T23:46:56.737Z,16.23
2022-12-20T23:49:26.170Z,15.20
2022-12-20T23:51:54.230Z,20.63
2022-12-20T23:54:22.420Z,16.90
2022-12-20T23:56:51.053Z,12.83
2022-12-20T23:59:19.022Z,16.27
